This is the latest recevied weather packets stored in our database for station/object N9OJR. If no packets are shown the sender has not sent any weather packets the latest 1 day(s).
| Time | Temp. | Humidity | Pressure | Rain* | Wind** | Luminosity | Snow |
|---|---|---|---|---|---|---|---|
| 1778097366 | 12.22° C | 62% | 1008.5 hPa | 0 mm | - | 134 W/m² | - |
| 1778096760 | 13.33° C | 60% | 1008.5 hPa | 0 mm | - | 178 W/m² | - |
| 1778096456 | 13.33° C | 58% | 1008.2 hPa | 0 mm | - | 240 W/m² | - |
| 1778096154 | 13.33° C | 57% | 1008.1 hPa | 0 mm | - | 234 W/m² | - |
| 1778095851 | 12.78° C | 59% | 1008 hPa | 0 mm | - | 393 W/m² | - |
| 1778091909 | 13.89° C | 55% | 1008.4 hPa | 0 mm | - | 984 W/m² | - |
| 1778089479 | 12.78° C | 62% | 1008.2 hPa | 0 mm | - | 305 W/m² | - |
| 1778089175 | 12.78° C | 60% | 1008.2 hPa | 0 mm | - | 250 W/m² | - |
| 1778087358 | 13.89° C | 66% | 1008.2 hPa | 0 mm | - | 331 W/m² | - |
| 1778085224 | 13.33° C | 65% | 1008.3 hPa | 0 mm | - | 517 W/m² | - |
| 1778082795 | 12.22° C | 75% | 1007.7 hPa | 0 mm | - | 718 W/m² | - |
| 1778081668 | 12.22° C | 71% | 1008 hPa | 0 mm | - | 500 W/m² | - |
| 1778080761 | 11.67° C | 71% | 1007.3 hPa | 0 mm | - | 503 W/m² | - |
| 1778080155 | 11.11° C | 76% | 1007.2 hPa | 0 mm | - | 485 W/m² | - |
| 1778079244 | 10.56° C | 81% | 1007.1 hPa | 0 mm | - | 310 W/m² | - |
| 1778078942 | 10° C | 83% | 1006.9 hPa | 0 mm | - | 321 W/m² | - |
| 1778078033 | 8.89° C | 97% | 1006.9 hPa | 0 mm | - | 300 W/m² | - |
| 1778076825 | 7.22° C | 99% | 1006.9 hPa | 0 mm | - | 265 W/m² | - |
| 1778076523 | 7.22° C | 99% | 1006.9 hPa | 0 mm | - | 206 W/m² | - |
| 1778075613 | 7.22° C | 99% | 1007 hPa | 0 mm | - | 143 W/m² | - |
| 1778075006 | 7.22° C | 99% | 1006.7 hPa | 0 mm | - | 135 W/m² | - |
| 1778072581 | 7.22° C | 99% | 1006.5 hPa | 0 mm | - | 86 W/m² | - |
| 1778071977 | 7.22° C | 99% | 1006 hPa | 0 mm | - | 81 W/m² | - |
| 1778069860 | 7.22° C | 99% | 1005.3 hPa | 0 mm | - | 88 W/m² | - |
| 1778068347 | 6.67° C | 99% | 1005.3 hPa | 0 mm | - | 30 W/m² | - |
* Rain latest hour (hover to see other rain measurements)
** Current wind speed in m/s (hover to see current wind gust speed)